Time;durP1;ratioP1;P1;durP2;ratioP2;P2;SDS_P1;SDS_P2;PMS_P1;PMS_P2;Temp;Humidity;BMP_temperature;BMP_pressure;BME280_temperature;BME280_humidity;BME280_pressure;Samples;Min_cycle;Max_cycle;Signal;HPM_P1;HPM_P2
2023/04/05 16:15:32;;;;;;;301.53;281.77;;;;;;;;;;5068699;28;21071;-71
2023/04/05 16:17:58;;;;;;;268.83;250.10;;;;;;;;;;5068928;28;20458;-71
2023/04/05 16:20:24;;;;;;;349.47;326.17;;;;;;;;;;5068091;28;20977;-73
2023/04/05 16:22:51;;;;;;;129.27;117.37;;;;;;;;;;5065827;28;20400;-72
2023/04/05 16:25:17;;;;;;;280.80;261.90;;;;;;;;;;5047528;28;20429;-72
2023/04/05 16:27:43;;;;;;;227.10;210.77;;;;;;;;;;5047504;28;20773;-71
2023/04/05 16:30:09;;;;;;;142.13;129.90;;;;;;;;;;5049133;28;20428;-71
2023/04/05 16:32:36;;;;;;;150.50;138.30;;;;;;;;;;5048642;28;20405;-72
2023/04/05 16:35:01;;;;;;;180.93;167.50;;;;;;;;;;5058320;28;20465;-72
2023/04/05 16:37:27;;;;;;;232.23;215.27;;;;;;;;;;5068856;28;20408;-71
2023/04/05 16:39:53;;;;;;;140.30;127.93;;;;;;;;;;5048753;28;20921;-71
2023/04/05 16:42:19;;;;;;;171.83;157.97;;;;;;;;;;5046921;28;20428;-72
2023/04/05 16:44:45;;;;;;;215.43;199.97;;;;;;;;;;5053757;28;20420;-72
2023/04/05 16:47:11;;;;;;;230.00;214.13;;;;;;;;;;5047203;28;20510;-71
2023/04/05 16:49:37;;;;;;;120.90;109.47;;;;;;;;;;5048364;28;20444;-71
2023/04/05 16:52:03;;;;;;;147.70;135.00;;;;;;;;;;5048183;28;20421;-71
2023/04/05 16:54:30;;;;;;;114.67;103.50;;;;;;;;;;5052921;28;20458;-71
2023/04/05 16:56:56;;;;;;;196.30;181.87;;;;;;;;;;5059824;28;20932;-71
2023/04/05 16:59:22;;;;;;;116.37;105.50;;;;;;;;;;5048165;28;20499;-71
2023/04/05 17:01:48;;;;;;;107.57;96.97;;;;;;;;;;5048219;28;20412;-72
2023/04/05 17:04:14;;;;;;;194.90;180.03;;;;;;;;;;5050475;28;20989;-71
2023/04/05 17:06:41;;;;;;;218.67;203.10;;;;;;;;;;5066865;28;20493;-71
2023/04/05 17:09:07;;;;;;;94.53;84.67;;;;;;;;;;5067685;28;20868;-71
2023/04/05 17:11:33;;;;;;;131.37;119.43;;;;;;;;;;5067922;28;20423;-71
2023/04/05 17:13:59;;;;;;;105.47;94.27;;;;;;;;;;5067197;28;20512;-72
2023/04/05 17:16:25;;;;;;;91.57;81.80;;;;;;;;;;5059481;28;20433;-73
2023/04/05 17:18:51;;;;;;;116.47;105.77;;;;;;;;;;5069335;28;20480;-71
2023/04/05 17:21:18;;;;;;;324.53;304.57;;;;;;;;;;5054411;28;20511;-73
2023/04/05 17:23:44;;;;;;;130.67;119.13;;;;;;;;;;5027893;28;20428;-72
2023/04/05 17:26:10;;;;;;;134.47;122.90;;;;;;;;;;5053790;28;20434;-70
2023/04/05 17:28:36;;;;;;;127.23;115.90;;;;;;;;;;5021523;28;20451;-69
2023/04/05 17:31:03;;;;;;;234.93;218.70;;;;;;;;;;5015673;28;20504;-71
2023/04/05 17:33:29;;;;;;;145.07;132.60;;;;;;;;;;5014779;28;20451;-71
2023/04/05 17:35:56;;;;;;;152.80;140.13;;;;;;;;;;5046864;28;20498;-72
2023/04/05 17:38:22;;;;;;;105.97;95.40;;;;;;;;;;5054757;28;20438;-71
2023/04/05 17:40:52;;;;;;;97.40;87.60;;;;;;;;;;5018667;28;20955;-72
2023/04/05 17:43:18;;;;;;;80.67;67.60;;;;;;;;;;5014590;28;20515;-72
2023/04/05 17:45:44;;;;;;;99.43;87.50;;;;;;;;;;5043875;28;20429;-72
2023/04/05 17:48:10;;;;;;;84.20;70.80;;;;;;;;;;5020819;28;20460;-72
2023/04/05 17:50:36;;;;;;;86.00;67.17;;;;;;;;;;5016810;28;20407;-72
2023/04/05 17:53:02;;;;;;;78.87;59.97;;;;;;;;;;5015893;28;20411;-72
2023/04/05 17:55:28;;;;;;;91.30;80.00;;;;;;;;;;5038179;28;20477;-73
2023/04/05 17:57:54;;;;;;;89.77;71.57;;;;;;;;;;5055708;28;20414;-72
2023/04/05 18:00:20;;;;;;;84.63;58.40;;;;;;;;;;5020691;28;20510;-73
2023/04/05 18:02:46;;;;;;;93.37;71.37;;;;;;;;;;5014765;28;20413;-73
2023/04/05 18:05:12;;;;;;;87.20;70.50;;;;;;;;;;5034010;28;20942;-73
2023/04/05 18:07:41;;;;;;;196.67;181.97;;;;;;;;;;5035905;28;20413;-73
2023/04/05 18:10:07;;;;;;;125.80;114.57;;;;;;;;;;5035714;28;20878;-73
2023/04/05 18:12:33;;;;;;;88.33;76.87;;;;;;;;;;5054199;28;20433;-72
2023/04/05 18:14:59;;;;;;;78.07;53.13;;;;;;;;;;5046731;28;20453;-70
2023/04/05 18:17:26;;;;;;;78.93;59.00;;;;;;;;;;5033636;28;20414;-71
2023/04/05 18:19:52;;;;;;;79.73;58.67;;;;;;;;;;5032699;28;20807;-70
2023/04/05 18:22:18;;;;;;;79.17;53.90;;;;;;;;;;5033377;28;20414;-71
2023/04/05 18:24:44;;;;;;;72.70;44.77;;;;;;;;;;5036927;28;20440;-71
2023/04/05 18:27:11;;;;;;;85.20;63.87;;;;;;;;;;5043948;28;20438;-71
2023/04/05 18:29:38;;;;;;;76.97;53.53;;;;;;;;;;5034122;28;20438;-71
2023/04/05 18:32:04;;;;;;;71.57;39.73;;;;;;;;;;5035639;28;20927;-72
2023/04/05 18:34:30;;;;;;;71.10;35.00;;;;;;;;;;5048750;28;20476;-70
2023/04/05 18:36:56;;;;;;;91.77;81.97;;;;;;;;;;5013283;28;20415;-70
2023/04/05 18:39:23;;;;;;;82.17;69.10;;;;;;;;;;5012705;28;20446;-71
2023/04/05 18:41:49;;;;;;;89.63;76.37;;;;;;;;;;5011635;28;20435;-70
2023/04/05 18:44:15;;;;;;;73.73;37.30;;;;;;;;;;5038046;28;20430;-71
2023/04/05 18:46:41;;;;;;;84.87;40.37;;;;;;;;;;5035231;28;20447;-70
2023/04/05 18:49:07;;;;;;;90.77;64.27;;;;;;;;;;5036378;28;20437;-71
2023/04/05 18:51:33;;;;;;;85.00;61.93;;;;;;;;;;5040415;28;20901;-68
2023/04/05 18:53:59;;;;;;;86.33;58.87;;;;;;;;;;5036829;28;20491;-70
2023/04/05 18:56:27;;;;;;;97.77;80.97;;;;;;;;;;5036140;28;20921;-71
2023/04/05 18:58:53;;;;;;;77.63;44.37;;;;;;;;;;5036832;28;20799;-70
2023/04/05 19:01:19;;;;;;;90.70;64.27;;;;;;;;;;5047950;28;20420;-69
2023/04/05 19:03:45;;;;;;;87.53;69.10;;;;;;;;;;5035326;28;20762;-70
2023/04/05 19:06:12;;;;;;;116.30;104.97;;;;;;;;;;5045603;28;20419;-72
2023/04/05 19:08:38;;;;;;;91.53;70.45;;;;;;;;;;5049047;28;20437;-71
2023/04/05 19:11:04;;;;;;;81.30;51.57;;;;;;;;;;5032608;28;20191;-72
2023/04/05 19:13:30;;;;;;;82.13;45.13;;;;;;;;;;5034286;28;20823;-71
2023/04/05 19:15:56;;;;;;;115.17;104.60;;;;;;;;;;5055099;28;20177;-71
2023/04/05 19:18:26;;;;;;;83.63;60.13;;;;;;;;;;5049957;28;20448;-71
2023/04/05 19:20:53;;;;;;;83.73;46.10;;;;;;;;;;5034019;28;20508;-71
2023/04/05 19:23:19;;;;;;;87.25;66.18;;;;;;;;;;5035157;28;20427;-72
2023/04/05 19:25:45;;;;;;;87.80;68.63;;;;;;;;;;5035086;28;20191;-70
2023/04/05 19:28:11;;;;;;;95.87;76.60;;;;;;;;;;5034225;28;20267;-69
2023/04/05 19:30:40;;;;;;;113.17;100.37;;;;;;;;;;5034602;28;20969;-69
2023/04/05 19:33:06;;;;;;;94.65;83.95;;;;;;;;;;5035410;28;20474;-69
2023/04/05 19:35:32;;;;;;;84.07;47.33;;;;;;;;;;5034326;28;20274;-70
2023/04/05 19:37:58;;;;;;;87.80;49.77;;;;;;;;;;5034354;28;20408;-69
2023/04/05 19:40:25;;;;;;;88.63;61.30;;;;;;;;;;5034487;28;20424;-69
2023/04/05 19:42:52;;;;;;;85.82;51.17;;;;;;;;;;5044329;28;20203;-69
2023/04/05 19:45:23;;;;;;;83.32;62.63;;;;;;;;;;5054780;28;20206;-70
2023/04/05 19:47:49;;;;;;;107.45;95.93;;;;;;;;;;5045142;28;20182;-71
2023/04/05 19:50:34;;;;;;;80.43;40.13;;;;;;;;;;5055538;28;20187;-71
2023/04/05 19:53:00;;;;;;;83.10;49.88;;;;;;;;;;5055876;28;20187;-73
2023/04/05 19:55:32;;;;;;;87.47;58.53;;;;;;;;;;5056185;28;20200;-71
2023/04/05 19:57:59;;;;;;;84.75;50.88;;;;;;;;;;5051751;28;20411;-71
2023/04/05 20:00:30;;;;;;;87.03;67.00;;;;;;;;;;5035840;28;20176;-71
2023/04/05 20:02:57;;;;;;;75.65;30.05;;;;;;;;;;5049399;28;20212;-71
2023/04/05 20:05:41;;;;;;;110.75;99.63;;;;;;;;;;5055822;28;20184;-70
2023/04/05 20:08:07;;;;;;;81.35;51.15;;;;;;;;;;5050969;28;20241;-71
2023/04/05 20:10:50;;;;;;;110.97;100.00;;;;;;;;;;5035232;28;20210;-71
2023/04/05 20:13:16;;;;;;;83.15;43.65;;;;;;;;;;5035739;28;20177;-71
2023/04/05 20:15:44;;;;;;;104.00;92.17;;;;;;;;;;5035992;28;20183;-70
2023/04/05 20:18:11;;;;;;;96.40;86.57;;;;;;;;;;5037542;28;20433;-70
2023/04/05 20:20:37;;;;;;;122.65;94.90;;;;;;;;;;5055276;28;20221;-72
2023/04/05 20:23:06;;;;;;;90.17;55.77;;;;;;;;;;5053744;28;20180;-71
2023/04/05 20:25:45;;;;;;;86.07;57.90;;;;;;;;;;5055646;28;20454;-72
2023/04/05 20:28:30;;;;;;;91.47;62.70;;;;;;;;;;5051883;28;20200;-72
2023/04/05 20:30:55;;;;;;;96.55;86.18;;;;;;;;;;5035855;28;20184;-72
2023/04/05 20:33:40;;;;;;;74.90;32.33;;;;;;;;;;5033467;28;20210;-73
2023/04/05 20:36:10;;;;;;;83.07;50.53;;;;;;;;;;5036110;28;20405;-73
2023/04/05 20:38:37;;;;;;;82.53;43.17;;;;;;;;;;5041762;28;20280;-73
2023/04/05 20:41:04;;;;;;;85.65;44.20;;;;;;;;;;5055609;28;20175;-72
2023/04/05 20:43:30;;;;;;;95.03;84.95;;;;;;;;;;5053272;28;20195;-72
2023/04/05 20:45:56;;;;;;;81.95;41.33;;;;;;;;;;5051862;28;20170;-72
2023/04/05 20:48:22;;;;;;;85.77;64.90;;;;;;;;;;5046338;28;20696;-73
2023/04/05 20:50:48;;;;;;;76.45;34.25;;;;;;;;;;5051577;28;20401;-71
2023/04/05 20:53:14;;;;;;;81.03;49.13;;;;;;;;;;5051545;28;20259;-73
2023/04/05 20:55:40;;;;;;;73.73;28.47;;;;;;;;;;5033711;28;20445;-71
2023/04/05 20:58:06;;;;;;;87.07;44.20;;;;;;;;;;5034463;28;20413;-73
2023/04/05 21:00:32;;;;;;;79.05;47.17;;;;;;;;;;5052143;28;20199;-72
2023/04/05 21:02:58;;;;;;;84.32;57.15;;;;;;;;;;5044181;28;20179;-74
2023/04/05 21:05:27;;;;;;;73.35;25.08;;;;;;;;;;5033881;28;20675;-73
2023/04/05 21:07:53;;;;;;;74.85;23.98;;;;;;;;;;5035866;28;20187;-73
2023/04/05 21:10:20;;;;;;;85.72;45.30;;;;;;;;;;5055214;28;20172;-73
2023/04/05 21:12:46;;;;;;;72.68;28.42;;;;;;;;;;5054562;28;20175;-71
2023/04/05 21:15:12;;;;;;;79.03;44.92;;;;;;;;;;5054795;28;20565;-72
2023/04/05 21:17:38;;;;;;;85.63;48.13;;;;;;;;;;5038694;28;20237;-71
2023/04/05 21:20:04;;;;;;;83.33;50.67;;;;;;;;;;5038055;28;20510;-73
2023/04/05 21:22:30;;;;;;;72.00;28.85;;;;;;;;;;5054447;28;20437;-72
2023/04/05 21:24:56;;;;;;;71.80;22.73;;;;;;;;;;5054826;28;20214;-72
2023/04/05 21:27:23;;;;;;;77.97;45.03;;;;;;;;;;5041785;28;20476;-72
2023/04/05 21:29:49;;;;;;;83.05;50.70;;;;;;;;;;5034403;28;20252;-74
2023/04/05 21:32:15;;;;;;;75.70;27.58;;;;;;;;;;5033048;28;20233;-72
2023/04/05 21:34:41;;;;;;;75.53;26.07;;;;;;;;;;5035245;28;20211;-73
2023/04/05 21:37:07;;;;;;;79.37;38.47;;;;;;;;;;5054527;28;20687;-73
2023/04/05 21:39:32;;;;;;;75.07;29.60;;;;;;;;;;5054404;28;20435;-73
2023/04/05 21:41:58;;;;;;;78.63;30.77;;;;;;;;;;5054111;28;20416;-73
2023/04/05 21:44:25;;;;;;;73.60;32.47;;;;;;;;;;5053975;28;20445;-72
2023/04/05 21:46:51;;;;;;;73.45;29.30;;;;;;;;;;5033184;28;20422;-73
2023/04/05 21:49:17;;;;;;;79.87;46.37;;;;;;;;;;5034303;28;20568;-74
2023/04/05 21:51:43;;;;;;;82.53;58.20;;;;;;;;;;5034192;28;20414;-73
2023/04/05 21:54:09;;;;;;;77.77;31.53;;;;;;;;;;5034196;28;20465;-73
2023/04/05 21:56:35;;;;;;;88.28;55.13;;;;;;;;;;5051475;28;20461;-73
2023/04/05 21:59:01;;;;;;;86.07;38.90;;;;;;;;;;5054081;28;20194;-73
2023/04/05 22:01:27;;;;;;;88.63;65.27;;;;;;;;;;5053971;28;20546;-74
2023/04/05 22:03:56;;;;;;;78.50;46.50;;;;;;;;;;5054079;28;20415;-74
2023/04/05 22:06:22;;;;;;;81.70;38.65;;;;;;;;;;5038278;28;20430;-73
2023/04/05 22:08:51;;;;;;;106.45;84.30;;;;;;;;;;5042973;28;20552;-73
2023/04/05 22:11:17;;;;;;;72.90;26.83;;;;;;;;;;5053642;28;20261;-73
2023/04/05 22:13:44;;;;;;;75.35;34.03;;;;;;;;;;5052147;28;20221;-73
2023/04/05 22:16:10;;;;;;;83.97;44.55;;;;;;;;;;5040037;28;20212;-73
2023/04/05 22:18:36;;;;;;;75.82;30.85;;;;;;;;;;5033748;28;20196;-73
2023/04/05 22:21:02;;;;;;;80.85;38.75;;;;;;;;;;5032412;28;20179;-73
2023/04/05 22:23:30;;;;;;;89.15;64.43;;;;;;;;;;5033559;28;20562;-73
2023/04/05 22:25:56;;;;;;;69.43;20.52;;;;;;;;;;5057974;22;20177;-70
2023/04/05 22:28:22;;;;;;;82.73;49.30;;;;;;;;;;5034281;28;20262;-69
2023/04/05 22:30:53;;;;;;;78.63;43.00;;;;;;;;;;5034325;28;20398;-69
2023/04/05 22:33:19;;;;;;;70.85;23.98;;;;;;;;;;5032768;28;20459;-70
2023/04/05 22:35:48;;;;;;;83.53;52.17;;;;;;;;;;5032781;28;20211;-69
2023/04/05 22:38:13;;;;;;;80.55;34.80;;;2.00;23.20;;;;;;5014146;28;20419;-71
2023/04/05 22:40:39;;;;;;;88.33;64.57;;;2.20;14.20;;;;;;5014181;28;20706;-70
2023/04/05 22:43:06;;;;;;;82.67;42.77;;;2.20;12.20;;;;;;5013976;28;20165;-69
2023/04/05 22:45:31;;;;;;;78.57;38.65;;;2.30;11.30;;;;;;5013943;28;20179;-70
2023/04/05 22:47:57;;;;;;;81.60;45.27;;;2.30;10.80;;;;;;5014057;28;20295;-71
2023/04/05 22:50:22;;;;;;;85.60;57.83;;;2.40;9.90;;;;;;5013908;28;20180;-68
2023/04/05 22:52:48;;;;;;;73.10;30.53;;;2.50;9.30;;;;;;5013847;28;20179;-69
2023/04/05 22:55:13;;;;;;;72.80;25.17;;;2.40;8.70;;;;;;5012330;28;20196;-70
2023/04/05 22:57:39;;;;;;;87.07;71.77;;;2.50;9.00;;;;;;5014505;28;20196;-69
2023/04/05 23:00:05;;;;;;;81.37;43.83;;;2.50;8.10;;;;;;5014151;28;20176;-69
2023/04/05 23:02:31;;;;;;;87.70;68.50;;;2.50;7.60;;;;;;5013585;28;20690;-68
2023/04/05 23:04:57;;;;;;;87.53;63.73;;;2.50;7.40;;;;;;5013852;28;20331;-70
2023/04/05 23:07:24;;;;;;;80.18;42.80;;;2.40;7.40;;;;;;5013681;28;20213;-69
2023/04/05 23:09:49;;;;;;;83.75;49.75;;;2.40;7.50;;;;;;5014120;28;20179;-70
2023/04/05 23:12:15;;;;;;;71.20;22.17;;;2.40;7.80;;;;;;5013793;28;20176;-69
2023/04/05 23:14:41;;;;;;;73.50;28.83;;;2.30;7.70;;;;;;5012149;28;20200;-70
2023/04/05 23:17:07;;;;;;;90.03;63.40;;;2.30;7.70;;;;;;5012609;28;20283;-70
2023/04/05 23:19:32;;;;;;;82.25;46.80;;;2.30;7.40;;;;;;5013990;28;20407;-70
2023/04/05 23:21:58;;;;;;;80.03;37.13;;;2.30;7.60;;;;;;5013614;28;20536;-70
2023/04/05 23:24:24;;;;;;;73.37;25.70;;;2.30;7.50;;;;;;5012806;28;20188;-69
2023/04/05 23:26:49;;;;;;;79.73;45.87;;;2.20;7.40;;;;;;5013467;28;20247;-70
2023/04/05 23:29:17;;;;;;;82.20;44.73;;;2.20;7.70;;;;;;5012161;28;20180;-70
2023/04/05 23:31:43;;;;;;;82.10;46.15;;;2.20;7.60;;;;;;5013454;28;20182;-70
2023/04/05 23:34:08;;;;;;;80.63;36.87;;;2.20;7.60;;;;;;5012178;28;20204;-70
2023/04/05 23:36:34;;;;;;;90.57;68.77;;;2.20;7.60;;;;;;5012120;28;20435;-70
2023/04/05 23:38:59;;;;;;;81.53;36.40;;;2.20;7.50;;;;;;5013117;28;20184;-69
2023/04/05 23:41:25;;;;;;;79.73;23.47;;;2.10;7.60;;;;;;5012856;28;20537;-70
2023/04/05 23:43:51;;;;;;;79.97;37.13;;;2.10;7.30;;;;;;5013126;28;20539;-69
2023/04/05 23:46:17;;;;;;;83.20;53.10;;;2.10;7.20;;;;;;5013203;28;20207;-70
2023/04/05 23:48:42;;;;;;;80.20;50.97;;;2.10;7.50;;;;;;5012784;28;20180;-70
2023/04/05 23:51:08;;;;;;;78.83;34.07;;;2.00;7.50;;;;;;5013059;28;20175;-68
2023/04/05 23:53:34;;;;;;;89.30;70.30;;;2.00;7.60;;;;;;5012132;28;20419;-69
2023/04/05 23:55:59;;;;;;;89.70;54.30;;;1.90;7.80;;;;;;5011144;28;20747;-68
2023/04/05 23:58:25;;;;;;;76.23;40.27;;;1.90;7.60;;;;;;5013522;28;20411;-69
